This is the latest recevied weather packets stored in our database for station/object JR5VPD-10. If no packets are shown the sender has not sent any weather packets the latest 10 day(s).
| Time | Temp. | Humidity | Pressure | Rain* | Wind** | Luminosity | Snow |
|---|---|---|---|---|---|---|---|
| 1788008772 | 30.56° C | 69% | 1005.8 hPa | 0 mm | 0 m/s | - | - |
| 1788006972 | 30.56° C | 69% | 1005.8 hPa | 0 mm | 0 m/s | - | - |
| 1788005172 | 30.56° C | 68% | 1005.8 hPa | 0 mm | 0 m/s | - | - |
| 1788003372 | 30.56° C | 65% | 1005.7 hPa | 0 mm | 0 m/s | - | - |
| 1788001572 | 31.67° C | 64% | 1005.3 hPa | 0 mm | 0 m/s | - | - |
| 1787999772 | 31.67° C | 62% | 1005.1 hPa | 0 mm | 0 m/s | - | - |
| 1787997972 | 31.67° C | 60% | 1004.7 hPa | 0 mm | 0 m/s | - | - |
| 1787996172 | 31.67° C | 58% | 1004.4 hPa | 0 mm | 0 m/s | - | - |
| 1787994372 | 32.78° C | 56% | 1004.3 hPa | 0 mm | 0 m/s | - | - |
| 1787992572 | 32.78° C | 56% | 1004.2 hPa | 0 mm | 0 m/s | - | - |
| 1787990772 | 32.78° C | 56% | 1004.1 hPa | 0 mm | 0 m/s | - | - |
| 1787988972 | 32.78° C | 55% | 1004 hPa | 0 mm | 0 m/s | - | - |
| 1787987172 | 32.78° C | 56% | 1004 hPa | 0 mm | 0 m/s | - | - |
| 1787985372 | 32.78° C | 55% | 1004 hPa | 0 mm | 0 m/s | - | - |
| 1787983572 | 32.78° C | 57% | 1004.3 hPa | 0 mm | 0 m/s | - | - |
| 1787981772 | 31.67° C | 61% | 1004.7 hPa | 0 mm | 0 m/s | - | - |
| 1787979972 | 31.67° C | 63% | 1004.7 hPa | 0 mm | 0 m/s | - | - |
| 1787978172 | 31.67° C | 66% | 1004.8 hPa | 0 mm | 0 m/s | - | - |
| 1787976372 | 31.67° C | 68% | 1005.2 hPa | 0 mm | 0 m/s | - | - |
| 1787974572 | 31.67° C | 70% | 1005.5 hPa | 0 mm | 0 m/s | - | - |
| 1787972772 | 30.56° C | 72% | 1005.7 hPa | 0 mm | 0 m/s | - | - |
| 1787970972 | 30.56° C | 73% | 1005.7 hPa | 0 mm | 0 m/s | - | - |
| 1787969172 | 30.56° C | 72% | 1005.9 hPa | 0 mm | 0 m/s | - | - |
| 1787967372 | 30.56° C | 74% | 1006 hPa | 0 mm | 0 m/s | - | - |
| 1787965572 | 30.56° C | 76% | 1006.3 hPa | 0 mm | 0 m/s | - | - |
* Rain latest hour (hover to see other rain measurements)
** Current wind speed in m/s (hover to see current wind gust speed)